Time;durP1;ratioP1;P1;durP2;ratioP2;P2;SDS_P1;SDS_P2;PMS_P1;PMS_P2;Temp;Humidity;BMP_temperature;BMP_pressure;BME280_temperature;BME280_humidity;BME280_pressure;Samples;Min_cycle;Max_cycle;Signal;HPM_P1;HPM_P2
2023/09/16 00:01:15;;;;;;;;;;;;;;;14.03;71.24;101000.53;4996022;28;2135;-73
2023/09/16 00:04:08;;;;;;;;;;;;;;;14.03;71.29;100989.69;4994262;28;2128;-74
2023/09/16 00:07:00;;;;;;;;;;;;;;;14.02;71.28;100998.84;5000486;28;2122;-74
2023/09/16 00:09:53;;;;;;;;;;;;;;;14.03;71.17;100996.97;5004114;28;2151;-73
2023/09/16 00:12:45;;;;;;;;;;;;;;;14.02;71.27;100998.84;5007925;28;2567;-73
2023/09/16 00:15:37;;;;;;;;;;;;;;;14.01;71.11;100991.81;4997257;28;2275;-73
2023/09/16 00:18:29;;;;;;;;;;;;;;;14.03;71.25;100994.25;4993797;28;2279;-74
2023/09/16 00:21:21;;;;;;;;;;;;;;;14.02;71.13;100989.91;4996736;28;2242;-72
2023/09/16 00:24:12;;;;;;;;;;;;;;;14.02;71.29;100989.91;4998095;28;2128;-73
2023/09/16 00:27:04;;;;;;;;;;;;;;;14.01;71.12;100986.38;4998686;28;2389;-72
2023/09/16 00:29:56;;;;;;;;;;;;;;;14.00;71.08;100987.47;4993864;28;2272;-72
2023/09/16 00:32:48;;;;;;;;;;;;;;;14.02;71.10;100985.31;4994391;28;2136;-72
2023/09/16 00:35:40;;;;;;;;;;;;;;;14.01;71.15;100978.25;4996351;28;2364;-74
2023/09/16 00:38:32;;;;;;;;;;;;;;;14.01;71.21;100972.84;4998666;28;2260;-72
2023/09/16 00:41:25;;;;;;;;;;;;;;;14.02;71.18;100968.25;5001005;28;2359;-72
2023/09/16 00:44:16;;;;;;;;;;;;;;;14.01;71.15;100964.72;4998095;28;2193;-73
2023/09/16 00:47:07;;;;;;;;;;;;;;;14.01;71.21;100962.00;4997334;28;2173;-73
2023/09/16 00:49:59;;;;;;;;;;;;;;;14.01;71.06;100966.63;5000285;28;2320;-73
2023/09/16 00:52:51;;;;;;;;;;;;;;;14.02;71.07;100970.97;4994339;28;2285;-73
2023/09/16 00:55:43;;;;;;;;;;;;;;;14.01;71.21;100959.31;5001291;28;2209;-72
2023/09/16 00:58:35;;;;;;;;;;;;;;;14.01;71.05;100967.44;4993035;28;5395;-73
2023/09/16 01:01:27;;;;;;;;;;;;;;;14.01;71.26;100966.63;4993842;28;5150;-73
2023/09/16 01:04:19;;;;;;;;;;;;;;;14.01;71.15;100963.91;4998250;28;2416;-72
2023/09/16 01:07:14;;;;;;;;;;;;;;;14.02;71.05;100965.53;4994156;28;2405;-74
2023/09/16 01:10:06;;;;;;;;;;;;;;;14.01;71.20;100961.19;4994740;28;2511;-72
2023/09/16 01:12:58;;;;;;;;;;;;;;;14.01;71.04;100961.19;4993703;28;2512;-72
2023/09/16 01:15:50;;;;;;;;;;;;;;;14.01;71.18;100970.13;4993082;28;2357;-72
2023/09/16 01:18:42;;;;;;;;;;;;;;;14.01;71.20;100962.00;4999093;28;2453;-73
2023/09/16 01:21:34;;;;;;;;;;;;;;;14.00;71.17;100957.66;4999042;28;2226;-72
2023/09/16 01:24:26;;;;;;;;;;;;;;;14.02;70.98;100960.94;4999226;28;2178;-72
2023/09/16 01:27:18;;;;;;;;;;;;;;;14.01;71.06;100955.78;4997518;28;2296;-74
2023/09/16 01:30:10;;;;;;;;;;;;;;;14.01;71.11;100955.78;4999224;28;2202;-73
2023/09/16 01:33:02;;;;;;;;;;;;;;;14.01;71.25;100958.50;4996089;28;2172;-73
2023/09/16 01:35:54;;;;;;;;;;;;;;;14.01;71.20;100961.19;4997378;28;2243;-73
2023/09/16 01:38:46;;;;;;;;;;;;;;;14.00;71.13;100965.78;4995474;28;2381;-73
2023/09/16 01:41:38;;;;;;;;;;;;;;;14.01;71.01;100963.91;4994501;28;2210;-73
2023/09/16 01:44:31;;;;;;;;;;;;;;;13.99;71.13;100956.00;5000662;28;2544;-72
2023/09/16 01:47:23;;;;;;;;;;;;;;;14.00;70.99;100954.09;4999324;28;2255;-73
2023/09/16 01:50:15;;;;;;;;;;;;;;;14.00;71.17;100954.97;5006019;28;2177;-73
2023/09/16 01:53:07;;;;;;;;;;;;;;;14.00;71.04;100946.84;4997097;28;2117;-73
2023/09/16 01:55:59;;;;;;;;;;;;;;;14.00;71.05;100952.25;4999125;28;3519;-72
2023/09/16 01:58:50;;;;;;;;;;;;;;;14.01;71.00;100942.25;5003018;28;2448;-72
2023/09/16 02:01:43;;;;;;;;;;;;;;;14.00;71.15;100930.59;4996924;28;2256;-73
2023/09/16 02:04:36;;;;;;;;;;;;;;;14.00;71.06;100944.13;4995704;28;2295;-73
2023/09/16 02:07:28;;;;;;;;;;;;;;;14.00;71.16;100946.84;4996229;28;2230;-72
2023/09/16 02:10:20;;;;;;;;;;;;;;;14.01;70.98;100942.25;4998044;28;2262;-73
2023/09/16 02:13:12;;;;;;;;;;;;;;;14.01;71.14;100936.81;4997345;28;2537;-72
2023/09/16 02:16:04;;;;;;;;;;;;;;;14.01;71.03;100934.13;5000458;28;2227;-73
2023/09/16 02:18:55;;;;;;;;;;;;;;;14.00;70.99;100943.28;5000336;28;2155;-72
2023/09/16 02:21:47;;;;;;;;;;;;;;;13.99;71.16;100937.03;4993788;28;2237;-72
2023/09/16 02:24:39;;;;;;;;;;;;;;;14.00;71.01;100929.75;4995913;28;2255;-74
2023/09/16 02:27:32;;;;;;;;;;;;;;;13.99;71.01;100931.63;4991651;28;2259;-74
2023/09/16 02:30:23;;;;;;;;;;;;;;;14.00;70.98;100932.44;4996921;28;2250;-73
2023/09/16 02:33:15;;;;;;;;;;;;;;;13.99;71.01;100931.63;5002758;28;2368;-72
2023/09/16 02:36:07;;;;;;;;;;;;;;;13.99;71.09;100925.38;4997722;28;2254;-73
2023/09/16 02:38:59;;;;;;;;;;;;;;;13.98;70.96;100932.69;5002331;28;2354;-72
2023/09/16 02:41:51;;;;;;;;;;;;;;;13.99;71.16;100931.63;5002762;28;2305;-72
2023/09/16 02:44:43;;;;;;;;;;;;;;;13.99;71.16;100934.34;5001359;28;2611;-72
2023/09/16 02:47:35;;;;;;;;;;;;;;;13.99;70.99;100941.63;5001097;28;2365;-73
2023/09/16 02:50:27;;;;;;;;;;;;;;;13.98;71.16;100942.72;4999239;28;2263;-73
2023/09/16 02:53:19;;;;;;;;;;;;;;;13.99;71.17;100945.16;4997891;28;2239;-73
2023/09/16 02:56:11;;;;;;;;;;;;;;;13.99;71.01;100944.34;4999107;28;2364;-73
2023/09/16 02:59:03;;;;;;;;;;;;;;;13.98;71.13;100940.81;4998140;28;2643;-72
2023/09/16 03:01:55;;;;;;;;;;;;;;;13.98;71.06;100932.69;4999554;28;6199;-73
2023/09/16 03:04:47;;;;;;;;;;;;;;;13.98;71.12;100932.69;5000059;28;2378;-73
2023/09/16 03:07:39;;;;;;;;;;;;;;;13.98;70.95;100926.47;4999258;28;2296;-73
2023/09/16 03:10:31;;;;;;;;;;;;;;;13.99;71.00;100933.50;4999299;28;2371;-72
2023/09/16 03:13:23;;;;;;;;;;;;;;;13.98;71.14;100943.53;4999546;28;2229;-72
2023/09/16 03:16:15;;;;;;;;;;;;;;;13.98;71.14;100945.41;5002756;28;2603;-74
2023/09/16 03:19:08;;;;;;;;;;;;;;;13.98;70.96;100940.81;5002421;28;2297;-74
2023/09/16 03:21:59;;;;;;;;;;;;;;;13.96;70.93;100945.63;5004218;28;2373;-72
2023/09/16 03:24:51;;;;;;;;;;;;;;;13.98;70.97;100940.00;4997995;28;2383;-72
2023/09/16 03:27:43;;;;;;;;;;;;;;;13.97;70.89;100925.63;5002995;28;2240;-72
2023/09/16 03:30:36;;;;;;;;;;;;;;;13.96;70.90;100926.69;5001785;28;2585;-72
2023/09/16 03:33:27;;;;;;;;;;;;;;;13.97;70.93;100924.78;4999414;28;2215;-72
2023/09/16 03:36:19;;;;;;;;;;;;;;;13.97;70.93;100919.38;4998878;28;2301;-73
2023/09/16 03:39:11;;;;;;;;;;;;;;;13.97;70.90;100914.81;5000385;28;2354;-72
2023/09/16 03:42:03;;;;;;;;;;;;;;;13.97;70.96;100916.66;5002904;28;2299;-72
2023/09/16 03:44:55;;;;;;;;;;;;;;;13.96;70.95;100910.44;4994577;28;2557;-73
2023/09/16 03:47:47;;;;;;;;;;;;;;;13.96;71.04;100913.13;5004412;28;2007;-73
2023/09/16 03:50:39;;;;;;;;;;;;;;;13.96;71.12;100906.91;5004797;28;1899;-73
2023/09/16 03:53:31;;;;;;;;;;;;;;;13.95;70.96;100914.22;4997600;28;1913;-74
2023/09/16 03:56:23;;;;;;;;;;;;;;;13.95;70.96;100911.50;5008281;28;3141;-73
2023/09/16 03:59:15;;;;;;;;;;;;;;;13.96;70.93;100912.31;5004126;28;1952;-74
2023/09/16 04:02:07;;;;;;;;;;;;;;;13.95;71.10;100918.81;4998400;28;2172;-73
2023/09/16 04:04:59;;;;;;;;;;;;;;;13.95;71.04;100919.63;4999939;28;2291;-73
2023/09/16 04:07:51;;;;;;;;;;;;;;;13.95;71.04;100916.09;4997521;28;2155;-73
2023/09/16 04:10:43;;;;;;;;;;;;;;;13.95;71.05;100916.91;5007352;28;2215;-72
2023/09/16 04:13:35;;;;;;;;;;;;;;;13.95;70.89;100907.97;4997153;28;2129;-73
2023/09/16 04:16:27;;;;;;;;;;;;;;;13.94;71.05;100915.28;5003649;28;2255;-73
2023/09/16 04:19:21;;;;;;;;;;;;;;;13.94;71.05;100917.97;4998094;28;2201;-73
2023/09/16 04:22:12;;;;;;;;;;;;;;;13.93;71.02;100910.91;4996237;28;2238;-73
2023/09/16 04:25:04;;;;;;;;;;;;;;;13.93;71.05;100910.91;4999600;28;2393;-73
2023/09/16 04:27:57;;;;;;;;;;;;;;;13.94;71.09;100911.72;5023323;28;1474;-73
2023/09/16 04:30:49;;;;;;;;;;;;;;;13.94;71.04;100911.72;5015619;28;2059;-72
2023/09/16 04:33:40;;;;;;;;;;;;;;;13.93;71.02;100900.06;5019432;28;1653;-72
2023/09/16 04:36:32;;;;;;;;;;;;;;;13.94;71.11;100907.16;5019230;28;1332;-73
2023/09/16 04:39:23;;;;;;;;;;;;;;;13.94;70.92;100892.75;5019696;28;1906;-72
2023/09/16 04:42:15;;;;;;;;;;;;;;;13.94;70.97;100892.75;5008613;28;1929;-72
2023/09/16 04:45:07;;;;;;;;;;;;;;;13.93;70.88;100891.94;5012921;28;1643;-72
2023/09/16 04:48:00;;;;;;;;;;;;;;;13.94;71.08;100890.06;5011860;28;2198;-72
2023/09/16 04:50:51;;;;;;;;;;;;;;;13.93;71.08;100889.25;5018483;28;1863;-73
2023/09/16 04:53:43;;;;;;;;;;;;;;;13.94;71.09;100890.06;5013484;28;1985;-73
2023/09/16 04:56:35;;;;;;;;;;;;;;;13.92;70.89;100884.91;5014097;28;1998;-73
2023/09/16 04:59:27;;;;;;;;;;;;;;;13.92;70.97;100884.06;5021155;28;1963;-72
2023/09/16 05:02:19;;;;;;;;;;;;;;;13.93;70.87;100885.72;5006887;28;6328;-72
2023/09/16 05:05:11;;;;;;;;;;;;;;;13.93;70.99;100883.00;5016291;28;1205;-73
2023/09/16 05:08:03;;;;;;;;;;;;;;;13.92;71.08;100884.91;5025501;28;1169;-73
2023/09/16 05:10:55;;;;;;;;;;;;;;;13.93;71.05;100883.00;5004904;28;2347;-72
2023/09/16 05:13:50;;;;;;;;;;;;;;;13.93;71.00;100886.53;5011724;28;2436;-72
2023/09/16 05:16:41;;;;;;;;;;;;;;;13.92;71.14;100881.38;5013488;28;2066;-74
2023/09/16 05:19:33;;;;;;;;;;;;;;;13.92;71.13;100890.31;5008361;28;2732;-72
2023/09/16 05:22:25;;;;;;;;;;;;;;;13.92;71.00;100893.00;5016983;28;2176;-72
2023/09/16 05:25:17;;;;;;;;;;;;;;;13.92;70.89;100889.50;5016983;28;3328;-73
2023/09/16 05:28:09;;;;;;;;;;;;;;;13.92;71.01;100892.19;5013827;28;3492;-73
2023/09/16 05:31:03;;;;;;;;;;;;;;;13.92;70.86;100897.59;5008056;28;2635;-72
2023/09/16 05:33:55;;;;;;;;;;;;;;;13.92;71.04;100903.03;5008228;28;2174;-73
2023/09/16 05:36:47;;;;;;;;;;;;;;;13.92;71.02;100900.31;5010562;28;2765;-72
2023/09/16 05:39:39;;;;;;;;;;;;;;;13.92;70.98;100903.03;5012068;28;2105;-73
2023/09/16 05:42:30;;;;;;;;;;;;;;;13.92;71.00;100911.16;5014880;28;1885;-72
2023/09/16 05:45:22;;;;;;;;;;;;;;;13.91;70.82;100907.59;5013369;28;5733;-73
2023/09/16 05:48:14;;;;;;;;;;;;;;;13.92;70.96;100903.84;5012010;28;3580;-74
2023/09/16 05:51:08;;;;;;;;;;;;;;;13.91;71.00;100894.06;5008216;28;2219;-72
2023/09/16 05:53:59;;;;;;;;;;;;;;;13.91;70.88;100899.47;5017748;28;1100;-74
2023/09/16 05:56:50;;;;;;;;;;;;;;;13.91;70.81;100894.06;5012334;28;1866;-74
2023/09/16 05:59:42;;;;;;;;;;;;;;;13.91;70.81;100899.47;5018826;28;1993;-74
2023/09/16 06:02:38;;;;;;;;;;;;;;;13.91;70.89;100904.06;4994485;28;3012;-73
2023/09/16 06:05:30;;;;;;;;;;;;;;;13.92;70.79;100903.03;5005210;28;1874;-74
2023/09/16 06:08:22;;;;;;;;;;;;;;;13.92;70.97;100903.84;5026917;28;1343;-73
2023/09/16 06:11:14;;;;;;;;;;;;;;;13.91;70.75;100912.19;5009560;28;1757;-73
2023/09/16 06:14:06;;;;;;;;;;;;;;;13.91;70.74;100907.59;5028924;28;982;-73
2023/09/16 06:16:58;;;;;;;;;;;;;;;13.91;70.85;100902.19;5014432;28;3354;-73
2023/09/16 06:19:54;;;;;;;;;;;;;;;13.92;70.98;100905.72;5011498;28;2141;-75
2023/09/16 06:22:45;;;;;;;;;;;;;;;13.91;70.93;100899.47;5022264;28;1225;-73
2023/09/16 06:25:38;;;;;;;;;;;;;;;13.91;70.73;100904.88;5023413;28;1267;-73
2023/09/16 06:28:29;;;;;;;;;;;;;;;13.91;70.97;100902.19;5011540;28;1880;-74
2023/09/16 06:31:21;;;;;;;;;;;;;;;13.91;70.96;100898.66;5021158;28;1969;-72
2023/09/16 06:34:13;;;;;;;;;;;;;;;13.92;70.92;100901.13;5013394;28;2126;-73
2023/09/16 06:37:06;;;;;;;;;;;;;;;13.91;70.94;100898.66;5014219;28;3578;-73
2023/09/16 06:39:57;;;;;;;;;;;;;;;13.92;70.97;100889.50;5015870;28;2307;-73
2023/09/16 06:42:49;;;;;;;;;;;;;;;13.90;70.91;100887.00;5022121;28;1606;-73
2023/09/16 06:45:41;;;;;;;;;;;;;;;13.91;70.79;100885.94;5018696;28;1698;-73
2023/09/16 06:48:33;;;;;;;;;;;;;;;13.91;70.90;100885.94;5013152;28;2006;-73
2023/09/16 06:51:25;;;;;;;;;;;;;;;13.91;70.96;100885.13;5017782;28;1939;-73
2023/09/16 06:54:17;;;;;;;;;;;;;;;13.92;70.87;100884.06;5015701;28;3579;-74
2023/09/16 06:57:08;;;;;;;;;;;;;;;13.92;70.87;100884.06;4994910;28;2228;-74
2023/09/16 07:00:00;;;;;;;;;;;;;;;13.91;71.00;100885.94;5003335;28;2397;-74
2023/09/16 07:02:53;;;;;;;;;;;;;;;13.91;70.78;100885.94;5021459;28;1566;-74
2023/09/16 07:05:45;;;;;;;;;;;;;;;13.92;70.79;100890.31;5008601;28;1873;-73
2023/09/16 07:08:36;;;;;;;;;;;;;;;13.91;70.89;100893.22;5018660;28;1868;-73
2023/09/16 07:11:28;;;;;;;;;;;;;;;13.92;70.80;100890.31;5028238;28;2251;-74
2023/09/16 07:14:20;;;;;;;;;;;;;;;13.91;70.90;100896.75;5008629;28;1928;-73
2023/09/16 07:17:12;;;;;;;;;;;;;;;13.92;70.93;100890.31;4994156;28;1966;-73
2023/09/16 07:20:04;;;;;;;;;;;;;;;13.98;80.40;100888.56;4994450;28;1902;-77
2023/09/16 07:22:57;;;;;;;;;;;;;;;13.97;74.27;100895.00;4994711;28;2231;-74
2023/09/16 07:25:48;;;;;;;;;;;;;;;13.96;73.86;100894.19;4995732;28;1910;-74
2023/09/16 07:28:40;;;;;;;;;;;;;;;13.94;72.49;100893.63;4994229;28;1945;-73
2023/09/16 07:31:32;;;;;;;;;;;;;;;13.95;72.35;100900.66;4996319;28;1952;-74
2023/09/16 07:34:25;;;;;;;;;;;;;;;13.95;72.23;100892.53;4994979;28;1970;-72
2023/09/16 07:37:17;;;;;;;;;;;;;;;13.95;72.47;100889.03;4997693;28;1978;-74
2023/09/16 07:40:09;;;;;;;;;;;;;;;13.95;72.72;100892.53;4994542;28;2127;-73
2023/09/16 07:43:01;;;;;;;;;;;;;;;13.96;72.55;100899.59;4991204;28;3453;-72
2023/09/16 07:45:53;;;;;;;;;;;;;;;13.96;72.47;100901.50;4995680;28;2088;-73
2023/09/16 07:48:45;;;;;;;;;;;;;;;13.97;72.85;100905.84;4996227;28;2354;-72
2023/09/16 07:51:40;;;;;;;;;;;;;;;13.96;73.21;100899.59;4996559;28;2151;-72
2023/09/16 07:54:31;;;;;;;;;;;;;;;13.96;73.19;100891.47;4994024;28;2027;-74
2023/09/16 07:57:23;;;;;;;;;;;;;;;13.97;73.02;100900.41;5008071;28;2067;-73
2023/09/16 08:00:15;;;;;;;;;;;;;;;13.96;73.13;100899.59;5009560;28;2076;-72
2023/09/16 08:03:07;;;;;;;;;;;;;;;13.97;72.97;100900.41;5012789;28;3994;-74
2023/09/16 08:05:59;;;;;;;;;;;;;;;13.97;72.92;100895.00;5020301;28;3516;-73
2023/09/16 08:08:51;;;;;;;;;;;;;;;13.96;72.77;100896.88;5015925;28;3185;-72
2023/09/16 08:11:43;;;;;;;;;;;;;;;13.97;72.51;100903.13;4991546;28;2161;-73
2023/09/16 08:14:36;;;;;;;;;;;;;;;13.97;72.42;100903.97;4989438;28;2592;-73
2023/09/16 08:17:27;;;;;;;;;;;;;;;13.97;72.55;100903.13;4993753;28;3287;-74
2023/09/16 08:20:20;;;;;;;;;;;;;;;13.97;72.59;100911.25;4998914;28;3211;-72
2023/09/16 08:23:13;;;;;;;;;;;;;;;13.97;72.52;100906.69;5014556;28;1892;-73
2023/09/16 08:26:05;;;;;;;;;;;;;;;13.97;72.26;100912.09;5028615;28;1374;-73
2023/09/16 08:28:57;;;;;;;;;;;;;;;13.97;72.16;100912.09;5008322;28;2070;-73
2023/09/16 08:31:48;;;;;;;;;;;;;;;13.98;72.18;100913.75;5012264;28;2030;-72
2023/09/16 08:34:40;;;;;;;;;;;;;;;13.99;72.26;100919.97;5022170;28;2024;-73
2023/09/16 08:37:32;;;;;;;;;;;;;;;13.99;72.10;100917.25;5023727;28;1213;-74
2023/09/16 08:40:24;;;;;;;;;;;;;;;13.99;72.18;100920.78;5027258;28;1964;-72
2023/09/16 08:43:16;;;;;;;;;;;;;;;13.99;72.21;100928.91;5023149;28;1991;-72
2023/09/16 08:46:08;;;;;;;;;;;;;;;13.99;72.19;100942.47;5015122;28;5242;-73
2023/09/16 08:49:00;;;;;;;;;;;;;;;13.99;72.16;100938.94;5006119;28;5039;-73
2023/09/16 08:51:52;;;;;;;;;;;;;;;13.99;72.00;100930.81;5013344;28;2388;-72
2023/09/16 08:54:44;;;;;;;;;;;;;;;14.00;72.19;100932.44;5010554;28;2025;-72
2023/09/16 08:57:36;;;;;;;;;;;;;;;14.01;71.88;100931.41;4995645;28;2132;-73
2023/09/16 09:00:28;;;;;;;;;;;;;;;14.01;72.08;100934.13;4992055;28;2934;-73
2023/09/16 09:03:20;;;;;;;;;;;;;;;14.00;71.87;100944.13;5003877;28;2180;-72
2023/09/16 09:06:12;;;;;;;;;;;;;;;14.01;72.08;100936.81;4991977;28;3338;-74
2023/09/16 09:09:03;;;;;;;;;;;;;;;14.00;71.82;100943.28;4993037;28;2033;-73
2023/09/16 09:11:55;;;;;;;;;;;;;;;14.01;71.89;100945.78;4994329;28;2135;-73
2023/09/16 09:14:47;;;;;;;;;;;;;;;14.01;71.88;100937.66;4992879;28;2106;-73
2023/09/16 09:17:39;;;;;;;;;;;;;;;14.01;71.94;100937.66;4999009;28;2021;-74
2023/09/16 09:20:31;;;;;;;;;;;;;;;14.02;71.79;100938.47;4999121;28;2048;-73
2023/09/16 09:23:23;;;;;;;;;;;;;;;14.02;71.92;100952.00;4987851;28;3904;-72
2023/09/16 09:26:14;;;;;;;;;;;;;;;14.03;71.82;100948.22;4990444;28;2132;-74
2023/09/16 09:29:09;;;;;;;;;;;;;;;14.03;72.13;100945.53;4992424;28;2097;-74
2023/09/16 09:32:01;;;;;;;;;;;;;;;14.03;72.02;100934.69;4993413;28;2307;-73
2023/09/16 09:34:53;;;;;;;;;;;;;;;14.03;71.84;100935.53;4992931;28;2131;-73
2023/09/16 09:37:45;;;;;;;;;;;;;;;14.04;71.79;100933.66;4991661;28;2067;-73
2023/09/16 09:40:37;;;;;;;;;;;;;;;14.05;71.80;100938.00;4989052;28;3481;-74
2023/09/16 09:43:32;;;;;;;;;;;;;;;14.04;71.78;100929.06;4992478;28;2484;-74
2023/09/16 09:46:23;;;;;;;;;;;;;;;14.05;71.70;100935.28;4996469;28;2614;-73
2023/09/16 09:49:15;;;;;;;;;;;;;;;14.05;71.75;100935.28;4999830;28;2700;-72
2023/09/16 09:52:07;;;;;;;;;;;;;;;14.06;71.78;100934.25;5005150;28;1991;-72
2023/09/16 09:55:00;;;;;;;;;;;;;;;14.05;71.71;100938.81;4996136;28;2040;-72
2023/09/16 09:57:52;;;;;;;;;;;;;;;14.06;71.89;100937.78;5014832;28;1936;-72
2023/09/16 10:00:44;;;;;;;;;;;;;;;14.05;71.86;100930.69;5011171;28;2150;-73
2023/09/16 10:03:36;;;;;;;;;;;;;;;14.07;71.66;100934.00;5024789;28;1489;-73
2023/09/16 10:06:28;;;;;;;;;;;;;;;14.07;71.66;100930.47;5016560;28;1674;-75
2023/09/16 10:09:20;;;;;;;;;;;;;;;14.08;71.68;100934.81;5018380;28;2048;-73
2023/09/16 10:12:12;;;;;;;;;;;;;;;14.07;71.75;100934.00;5025405;28;1086;-72
2023/09/16 10:15:04;;;;;;;;;;;;;;;14.08;71.94;100937.53;5019521;28;2046;-73
2023/09/16 10:17:56;;;;;;;;;;;;;;;14.08;71.77;100929.41;5012096;28;2113;-74
2023/09/16 10:20:49;;;;;;;;;;;;;;;14.08;71.75;100919.38;4992680;28;2178;-73
2023/09/16 10:23:40;;;;;;;;;;;;;;;14.08;71.89;100916.69;5007597;28;2295;-72
2023/09/16 10:26:32;;;;;;;;;;;;;;;14.09;71.75;100918.34;4997906;28;2154;-73
2023/09/16 10:29:25;;;;;;;;;;;;;;;14.09;71.92;100915.63;5009206;28;2158;-75
2023/09/16 10:32:16;;;;;;;;;;;;;;;14.11;71.72;100923.53;5014085;28;1991;-72
2023/09/16 10:35:08;;;;;;;;;;;;;;;14.11;71.90;100923.53;5017342;28;2091;-72
2023/09/16 10:38:00;;;;;;;;;;;;;;;14.10;71.83;100916.47;5014764;28;1977;-73
2023/09/16 10:40:52;;;;;;;;;;;;;;;14.12;71.81;100922.47;5019999;28;1962;-72
2023/09/16 10:43:44;;;;;;;;;;;;;;;14.12;71.75;100922.47;5020655;28;1703;-73
2023/09/16 10:46:36;;;;;;;;;;;;;;;14.12;71.89;100919.78;5006880;28;2059;-73
2023/09/16 10:49:28;;;;;;;;;;;;;;;14.14;71.72;100919.53;5020680;28;2223;-74
2023/09/16 10:52:20;;;;;;;;;;;;;;;14.13;71.71;100910.56;5007850;28;2153;-74
2023/09/16 10:55:12;;;;;;;;;;;;;;;14.14;71.79;100904.09;5008840;28;1998;-74
2023/09/16 10:58:05;;;;;;;;;;;;;;;14.14;71.70;100917.63;5022992;28;2467;-73
2023/09/16 11:00:56;;;;;;;;;;;;;;;14.15;71.66;100908.47;5025283;28;2114;-72
2023/09/16 11:03:47;;;;;;;;;;;;;;;14.15;71.76;100907.63;5012315;28;2161;-73
2023/09/16 11:06:39;;;;;;;;;;;;;;;14.15;71.77;100913.88;5018861;28;2189;-73
2023/09/16 11:09:31;;;;;;;;;;;;;;;14.16;71.79;100914.69;5012729;28;3543;-73
2023/09/16 11:12:23;;;;;;;;;;;;;;;14.16;71.77;100917.41;5015496;28;2217;-73
2023/09/16 11:15:16;;;;;;;;;;;;;;;14.17;71.70;100910.94;5019315;28;5268;-72
2023/09/16 11:18:09;;;;;;;;;;;;;;;14.17;71.94;100910.94;5019721;28;5144;-74
2023/09/16 11:21:01;;;;;;;;;;;;;;;14.18;71.82;100907.19;5021502;28;5192;-73
2023/09/16 11:23:52;;;;;;;;;;;;;;;14.18;71.84;100905.28;5009749;28;2236;-74
2023/09/16 11:26:44;;;;;;;;;;;;;;;14.18;71.59;100908.00;5003900;28;2236;-73
2023/09/16 11:29:37;;;;;;;;;;;;;;;14.18;71.86;100897.16;5011559;28;2165;-73
2023/09/16 11:32:28;;;;;;;;;;;;;;;14.19;71.74;100898.81;5005139;28;3319;-73
2023/09/16 11:35:20;;;;;;;;;;;;;;;14.19;71.67;100896.09;5015607;28;2965;-72
2023/09/16 11:38:12;;;;;;;;;;;;;;;14.20;71.75;100888.78;5009469;28;2990;-74
2023/09/16 11:41:08;;;;;;;;;;;;;;;14.20;71.79;100888.78;5012775;28;2349;-74
2023/09/16 11:44:00;;;;;;;;;;;;;;;14.20;71.79;100889.59;5022907;28;2342;-72
2023/09/16 11:46:52;;;;;;;;;;;;;;;14.21;71.82;100885.84;5004226;28;5060;-73
2023/09/16 11:49:45;;;;;;;;;;;;;;;14.21;71.79;100891.28;5019244;28;2100;-73
2023/09/16 11:52:36;;;;;;;;;;;;;;;14.21;71.96;100893.97;5014398;28;2078;-73
2023/09/16 11:55:28;;;;;;;;;;;;;;;14.22;71.85;100894.81;5019142;28;2049;-73
2023/09/16 11:58:19;;;;;;;;;;;;;;;14.23;71.84;100891.03;5020380;28;2147;-73
2023/09/16 12:01:11;;;;;;;;;;;;;;;14.23;71.70;100889.13;5003460;28;5089;-73
2023/09/16 12:04:04;;;;;;;;;;;;;;;14.22;71.91;100884.78;5011687;28;2415;-74
2023/09/16 12:06:55;;;;;;;;;;;;;;;14.23;71.89;100881.00;5018331;28;1731;-73
2023/09/16 12:09:48;;;;;;;;;;;;;;;14.23;72.06;100870.16;5019469;28;2038;-74
2023/09/16 12:12:39;;;;;;;;;;;;;;;14.25;72.05;100868.06;5020582;28;2200;-73
2023/09/16 12:15:32;;;;;;;;;;;;;;;14.25;72.06;100872.66;5009036;28;2280;-72
2023/09/16 12:18:23;;;;;;;;;;;;;;;14.26;72.10;100885.13;5000190;28;4660;-73
2023/09/16 12:21:14;;;;;;;;;;;;;;;14.26;72.18;100887.84;5011094;28;1973;-73
2023/09/16 12:24:06;;;;;;;;;;;;;;;14.26;72.00;100885.13;5006874;28;2141;-73
2023/09/16 12:26:58;;;;;;;;;;;;;;;14.26;71.98;100882.41;5019490;28;1633;-73
2023/09/16 12:29:50;;;;;;;;;;;;;;;14.27;71.97;100884.09;5005784;28;2055;-72
2023/09/16 12:32:41;;;;;;;;;;;;;;;14.28;72.09;100883.84;5015147;28;1951;-73
2023/09/16 12:35:33;;;;;;;;;;;;;;;14.27;71.97;100878.66;5000625;28;2639;-72
2023/09/16 12:38:25;;;;;;;;;;;;;;;14.28;71.99;100873.00;4996121;28;4951;-73
2023/09/16 12:41:17;;;;;;;;;;;;;;;14.28;71.93;100877.59;5013008;28;2189;-72
2023/09/16 12:44:08;;;;;;;;;;;;;;;14.28;72.15;100878.41;5006300;28;3231;-73
2023/09/16 12:47:01;;;;;;;;;;;;;;;14.29;71.93;100871.09;5004478;28;1968;-74
2023/09/16 12:49:52;;;;;;;;;;;;;;;14.28;72.08;100873.00;4996024;28;5044;-73
2023/09/16 12:52:44;;;;;;;;;;;;;;;14.29;72.04;100869.25;5007882;28;2033;-73
2023/09/16 12:55:36;;;;;;;;;;;;;;;14.29;71.97;100873.81;5011189;28;1714;-74
2023/09/16 12:58:27;;;;;;;;;;;;;;;14.29;71.88;100869.25;5012516;28;2027;-73
2023/09/16 13:01:19;;;;;;;;;;;;;;;14.30;72.07;100872.78;5006675;28;1917;-74
2023/09/16 13:04:11;;;;;;;;;;;;;;;14.29;71.99;100866.53;5008593;28;2066;-73
2023/09/16 13:07:03;;;;;;;;;;;;;;;14.31;71.92;100871.72;5002760;28;1889;-73
2023/09/16 13:09:55;;;;;;;;;;;;;;;14.31;72.10;100871.72;5001781;28;8625;-74
2023/09/16 13:12:48;;;;;;;;;;;;;;;14.31;72.00;100863.56;5008875;28;2245;-73
2023/09/16 13:15:40;;;;;;;;;;;;;;;14.31;71.87;100866.28;5002327;28;2316;-73
2023/09/16 13:18:31;;;;;;;;;;;;;;;14.32;71.99;100857.09;5015034;28;2283;-75
2023/09/16 13:21:22;;;;;;;;;;;;;;;14.31;72.00;100856.28;5013038;28;2981;-73
2023/09/16 13:24:13;;;;;;;;;;;;;;;14.32;71.89;100857.94;5010016;28;2249;-72
2023/09/16 13:27:05;;;;;;;;;;;;;;;14.32;71.98;100859.78;4984810;28;4956;-72
2023/09/16 13:29:57;;;;;;;;;;;;;;;14.32;72.04;100854.38;5000184;28;2196;-73
2023/09/16 13:32:49;;;;;;;;;;;;;;;14.32;71.92;100846.25;4997764;28;2070;-73
2023/09/16 13:35:41;;;;;;;;;;;;;;;14.32;72.06;100843.53;5013030;28;2113;-73
2023/09/16 13:38:33;;;;;;;;;;;;;;;14.33;72.04;100839.78;5012219;28;2023;-72
2023/09/16 13:41:24;;;;;;;;;;;;;;;14.33;71.98;100842.50;4990799;28;2106;-73
2023/09/16 13:44:16;;;;;;;;;;;;;;;14.33;72.09;100837.09;5002464;28;4963;-71
2023/09/16 13:47:08;;;;;;;;;;;;;;;14.34;72.04;100838.72;5009526;28;5242;-72
2023/09/16 13:50:00;;;;;;;;;;;;;;;14.34;71.97;100838.72;5005936;28;2208;-73
2023/09/16 13:52:52;;;;;;;;;;;;;;;14.33;72.05;100834.38;5010603;28;4290;-73
2023/09/16 13:55:44;;;;;;;;;;;;;;;14.34;72.11;100833.31;5014551;28;2125;-72
2023/09/16 13:58:36;;;;;;;;;;;;;;;14.34;72.13;100824.34;5010468;28;2253;-73
2023/09/16 14:01:28;;;;;;;;;;;;;;;14.34;71.97;100830.59;5007302;28;2544;-73
2023/09/16 14:04:21;;;;;;;;;;;;;;;14.34;72.08;100838.72;4996118;28;4150;-73
2023/09/16 14:07:12;;;;;;;;;;;;;;;14.34;72.06;100836.00;4997861;28;2263;-73
2023/09/16 14:10:03;;;;;;;;;;;;;;;14.35;72.13;100837.66;4990551;28;2239;-72
2023/09/16 14:12:56;;;;;;;;;;;;;;;14.35;72.16;100842.25;4981734;28;4955;-74
2023/09/16 14:15:47;;;;;;;;;;;;;;;14.35;72.22;100837.66;4992269;28;2174;-73
2023/09/16 14:18:40;;;;;;;;;;;;;;;14.35;72.04;100834.94;5012494;28;2058;-71
2023/09/16 14:21:31;;;;;;;;;;;;;;;14.34;72.10;100836.00;5006667;28;2100;-72
2023/09/16 14:24:24;;;;;;;;;;;;;;;14.36;72.07;100846.63;4992141;28;2146;-72
2023/09/16 14:27:15;;;;;;;;;;;;;;;14.35;72.04;100842.25;4991945;28;2615;-74
2023/09/16 14:30:07;;;;;;;;;;;;;;;14.35;72.04;100848.47;5013137;28;2519;-73
2023/09/16 14:32:59;;;;;;;;;;;;;;;14.34;72.15;100844.13;5005757;28;2023;-72
2023/09/16 14:35:51;;;;;;;;;;;;;;;14.35;72.05;100851.19;4997060;28;2190;-72
2023/09/16 14:38:44;;;;;;;;;;;;;;;14.36;72.08;100854.75;5006427;28;2070;-72
2023/09/16 14:41:35;;;;;;;;;;;;;;;14.35;72.06;100851.19;5016941;28;2163;-72
2023/09/16 14:44:27;;;;;;;;;;;;;;;14.36;72.09;100841.22;5020086;28;2035;-72
2023/09/16 14:47:19;;;;;;;;;;;;;;;14.36;72.21;100846.63;5000134;28;2289;-72
2023/09/16 14:50:12;;;;;;;;;;;;;;;14.35;72.10;100840.34;5014132;28;2227;-74
2023/09/16 14:53:03;;;;;;;;;;;;;;;14.35;72.24;100845.78;5007054;28;2240;-73
2023/09/16 14:55:54;;;;;;;;;;;;;;;14.35;72.22;100853.09;4982318;28;5106;-72